EW7438 Veracruz MX current weather conditions

sailwx.info

Wind from 345 at 6 knots gusting 10

Air temperature 23.9° C
Dewpoint 22.7° C

Last reported at 2018-Oct-20 05:45 UTC.
Time now 2018-Oct-20 06:24 UTC

Location: N 19°08' W 096°11'.
View on Google Maps.

See reports from other nearby stations

  
Tides and Currents Weather Stations Pressure Air Temp Water Temp Dewpoint Dewpoint Depression Visibility Wind Speed Wind Dir Waves Ship Positions
date/time (UTC)wind fromknots sea level pressurealtimeterstation pressurevisibilityair tempwater tempwave heightnotes
2018-Oct-20 05:45 345 6 gusting 10 23.9
2018-Oct-20 05:30 344 6 gusting 12 23.9
2018-Oct-20 05:15 325 7 gusting 13 24.4
2018-Oct-20 04:46 016 12 gusting 19 24.4
2018-Oct-20 04:31 009 10 gusting 15 25.0
2018-Oct-20 04:01 030 13 gusting 20 26.1
2018-Oct-20 03:45 355 10 gusting 16 26.1
2018-Oct-20 03:30 009 11 gusting 17 26.1
2018-Oct-20 03:00 355 12 gusting 18 26.1
2018-Oct-20 02:45 360 11 gusting 16 26.1
2018-Oct-20 02:31 022 11 gusting 15 25.6
2018-Oct-20 02:01 015 11 gusting 19 25.6
2018-Oct-20 01:30 016 13 gusting 21 25.6
2018-Oct-20 01:15 005 14 gusting 19 25.6
2018-Oct-20 01:00 017 11 gusting 19 26.1
2018-Oct-20 00:46 355 12 gusting 21 26.1
2018-Oct-20 00:15 005 11 gusting 19 26.1
2018-Oct-20 00:01 012 12 gusting 19 26.1
2018-Oct-19 23:45 005 10 gusting 16 26.1
2018-Oct-19 23:31 343 14 gusting 20 26.1
2018-Oct-19 23:18 005 11 gusting 19 26.1
2018-Oct-19 22:46 005 10 gusting 19 25.6
2018-Oct-19 22:15 031 11 gusting 22 25.6
2018-Oct-19 21:45 032 15 gusting 24 26.1
2018-Oct-19 21:30 017 13 gusting 19 26.1
2018-Oct-19 21:15 017 13 gusting 22 26.7
2018-Oct-19 21:01 029 11 gusting 19 27.2
2018-Oct-19 20:45 029 12 gusting 17 27.8
2018-Oct-19 20:30 013 13 gusting 19 27.8
2018-Oct-19 20:15 011 13 gusting 17 27.8
2018-Oct-19 20:01 009 10 gusting 13 27.8
2018-Oct-19 19:46 042 9 gusting 17 27.8
2018-Oct-19 19:30 025 11 gusting 15 28.3
2018-Oct-19 19:01 015 13 gusting 17 28.9
2018-Oct-19 18:45 009 13 gusting 19 30.0
2018-Oct-19 18:32 360 13 gusting 19 30.0
2018-Oct-19 18:15 355 13 gusting 17 30.0
2018-Oct-19 18:00 338 9 gusting 16 30.0
2018-Oct-19 17:45 016 12 gusting 18 29.4
2018-Oct-19 17:15 026 11 gusting 14 29.4
2018-Oct-19 16:45 350 8 gusting 14 28.3
2018-Oct-19 16:30 013 8 gusting 14 27.8
2018-Oct-19 16:16 349 11 gusting 14 28.3
2018-Oct-19 15:46 360 11 gusting 16 27.2
2018-Oct-19 15:15 005 12 gusting 16 26.7
2018-Oct-19 15:00 335 7 gusting 12 26.7
2018-Oct-19 14:45 016 6 gusting 12 25.6
2018-Oct-19 14:16 360 6 gusting 10 25.0
2018-Oct-19 14:00 005 6 gusting 11 24.4
2018-Oct-19 13:30 023 7 gusting 11 23.9
2018-Oct-19 13:16 355 6 gusting 10 24.4
2018-Oct-19 13:01 005 6 gusting 9 24.4
2018-Oct-19 12:32 035 5 gusting 10 24.4
2018-Oct-19 12:16 057 6 gusting 11 24.4
2018-Oct-19 12:01 015 8 gusting 13 24.4
2018-Oct-19 11:45 017 8 gusting 12 24.4
2018-Oct-19 11:30 011 5 gusting 9 24.4
2018-Oct-19 10:15 005 2 gusting 4 23.9
2018-Oct-19 09:30 348 1 gusting 3 23.3
2018-Oct-19 09:16 009 3 gusting 7 23.3
2018-Oct-19 09:01 355 1 gusting 3 22.8
2018-Oct-19 08:45 011 0 gusting 4 23.3
2018-Oct-19 08:31 355 2 gusting 4 23.9
2018-Oct-19 08:01 327 3 gusting 8 24.4
2018-Oct-19 07:45 336 2 gusting 8 24.4
2018-Oct-19 06:46 355 6 gusting 11 25.0
2018-Oct-19 06:31 009 7 gusting 11 25.0
2018-Oct-19 06:15 019 6 gusting 11 25.0
2018-Oct-19 05:30 005 11 gusting 19 26.1
2018-Oct-19 05:16 005 11 gusting 16 26.1
2018-Oct-19 04:48 011 12 gusting 18 25.6
2018-Oct-19 03:32 355 9 gusting 14 26.1
2018-Oct-19 03:15 024 12 gusting 17 26.1
2018-Oct-19 03:01 360 11 gusting 18 25.6
2018-Oct-19 02:30 355 6 gusting 16 25.6
2018-Oct-19 01:30 015 10 gusting 19 26.1
2018-Oct-19 01:16 005 11 gusting 16 26.1
2018-Oct-19 01:00 005 11 gusting 19 26.1
2018-Oct-19 00:46 012 10 gusting 18 26.7
2018-Oct-19 00:00 013 11 gusting 16 26.1
2018-Oct-18 23:46 005 13 gusting 18 26.1
2018-Oct-18 23:31 017 13 gusting 18 26.7
2018-Oct-18 23:03 010 13 gusting 19 26.7
2018-Oct-18 22:45 005 13 gusting 19 26.7
2018-Oct-18 22:16 017 11 gusting 16 26.7
2018-Oct-18 22:01 005 10 gusting 18 26.7
2018-Oct-18 21:45 350 10 gusting 15 27.2
2018-Oct-18 21:16 028 14 gusting 20 27.2
2018-Oct-18 20:45 355 14 gusting 23 27.2
2018-Oct-18 20:15 013 17 gusting 25 27.8
2018-Oct-18 19:46 011 14 gusting 20 27.8
2018-Oct-18 19:30 360 14 gusting 20 27.8
2018-Oct-18 19:00 021 15 gusting 23 28.9
2018-Oct-18 18:30 022 13 gusting 19 28.3
2018-Oct-18 18:00 026 14 gusting 23 28.3
2018-Oct-18 17:15 024 16 gusting 22 27.8
2018-Oct-18 16:45 005 11 gusting 21 27.2
2018-Oct-18 16:16 360 14 gusting 21 27.2
2018-Oct-18 15:46 005 13 gusting 21 27.2
2018-Oct-18 15:31 017 13 gusting 20 27.2
2018-Oct-18 15:01 015 13 gusting 18 26.1
2018-Oct-18 14:46 030 13 gusting 19 26.1
2018-Oct-18 14:30 347 9 gusting 18 26.1
2018-Oct-18 14:16 351 13 gusting 19 26.1
2018-Oct-18 14:01 011 12 gusting 20 26.1
2018-Oct-18 13:45 355 13 gusting 19 25.6
2018-Oct-18 13:15 015 12 gusting 19 25.6
2018-Oct-18 12:46 015 9 gusting 17 25.6
2018-Oct-18 12:30 012 10 gusting 18 25.0
2018-Oct-18 12:00 031 9 gusting 13 24.4
2018-Oct-18 11:46 023 8 gusting 17 24.4
2018-Oct-18 11:15 031 11 gusting 19 24.4
2018-Oct-18 11:01 338 13 gusting 18 24.4
2018-Oct-18 10:31 020 8 gusting 13 25.0
2018-Oct-18 10:15 022 9 gusting 19 25.0
2018-Oct-18 09:45 005 11 gusting 16 25.0
2018-Oct-18 09:31 014 11 gusting 18 24.4
2018-Oct-18 09:01 012 11 gusting 18 25.6
2018-Oct-18 08:45 005 13 gusting 17 25.0
2018-Oct-18 08:32 011 11 gusting 17 25.6
2018-Oct-18 08:16 011 12 gusting 19 26.1
2018-Oct-18 08:01 009 12 gusting 19 26.1
2018-Oct-18 07:46 338 11 gusting 16 25.6
2018-Oct-18 07:31 355 11 gusting 18 26.1
2018-Oct-18 07:15 009 13 gusting 19 25.6
2018-Oct-18 07:01 350 11 gusting 16 25.6
2018-Oct-18 06:31 355 12 gusting 20 25.6
2018-Oct-18 06:00 015 11 gusting 21 25.6